createdAt,value
2018-01-24T00:00:47.840Z,0.40
2018-01-24T00:03:20.276Z,0.40
2018-01-24T00:05:51.195Z,0.77
2018-01-24T00:08:22.621Z,0.50
2018-01-24T00:10:53.553Z,0.70
2018-01-24T00:13:25.233Z,0.57
2018-01-24T00:15:56.756Z,0.40
2018-01-24T00:18:28.639Z,0.40
2018-01-24T00:20:59.841Z,0.50
2018-01-24T00:23:32.089Z,0.50
2018-01-24T00:26:05.837Z,0.53
2018-01-24T00:28:38.294Z,0.40
2018-01-24T00:31:10.980Z,0.53
2018-01-24T00:33:42.222Z,0.60
2018-01-24T00:36:13.723Z,0.60
2018-01-24T00:38:46.979Z,0.47
2018-01-24T00:41:20.937Z,0.60
2018-01-24T00:43:52.791Z,0.47
2018-01-24T00:46:24.069Z,0.60
2018-01-24T00:48:55.870Z,0.60
2018-01-24T00:51:26.867Z,1.80
2018-01-24T00:54:00.468Z,0.57
2018-01-24T00:56:33.986Z,2.17
2018-01-24T00:59:04.532Z,0.90
2018-01-24T01:01:37.004Z,1.50
2018-01-24T01:04:10.226Z,0.90
2018-01-24T01:06:43.811Z,1.40
2018-01-24T01:09:16.713Z,1.00
2018-01-24T01:11:53.883Z,0.50
2018-01-24T01:14:26.722Z,1.23
2018-01-24T01:16:57.941Z,0.93
2018-01-24T01:19:29.319Z,0.40
2018-01-24T01:22:01.330Z,1.20
2018-01-24T01:24:34.261Z,0.40
2018-01-24T01:27:06.118Z,0.90
2018-01-24T01:29:39.649Z,0.67
2018-01-24T01:32:13.432Z,0.40
2018-01-24T01:34:45.618Z,0.40
2018-01-24T01:37:16.895Z,0.50
2018-01-24T01:39:49.740Z,0.40
2018-01-24T01:42:21.104Z,0.57
2018-01-24T01:44:54.134Z,0.50
2018-01-24T01:47:26.915Z,0.40
2018-01-24T01:50:01.512Z,0.37
2018-01-24T01:52:35.839Z,0.30
2018-01-24T01:55:08.905Z,0.50
2018-01-24T01:57:40.662Z,0.40
2018-01-24T02:00:14.176Z,0.50
2018-01-24T02:02:48.196Z,0.60
2018-01-24T02:05:23.306Z,0.80
2018-01-24T02:07:57.235Z,0.70
2018-01-24T02:10:30.610Z,0.60
2018-01-24T02:13:04.041Z,0.50
2018-01-24T02:15:36.120Z,0.50
2018-01-24T02:18:07.579Z,0.40
2018-01-24T02:20:40.522Z,0.80
2018-01-24T02:23:12.908Z,0.60
2018-01-24T02:25:45.373Z,0.90
2018-01-24T02:28:16.589Z,0.80
2018-01-24T02:30:48.619Z,0.80
2018-01-24T06:39:31.676Z,0.60
2018-01-24T06:42:09.865Z,0.60
2018-01-24T06:44:47.440Z,0.83
2018-01-24T06:47:23.096Z,0.80
2018-01-24T06:50:01.180Z,0.80
2018-01-24T06:52:41.797Z,0.90
2018-01-24T06:55:20.595Z,1.10
2018-01-24T06:57:57.534Z,0.90
2018-01-24T07:00:33.095Z,1.10
2018-01-24T07:03:08.564Z,1.10
2018-01-24T07:05:42.290Z,1.20
2018-01-24T07:08:14.789Z,0.90
2018-01-24T07:10:52.938Z,0.60
2018-01-24T07:15:36.835Z,0.87
2018-01-24T07:18:09.137Z,0.98
2018-01-24T07:20:43.916Z,0.70
2018-01-24T07:23:21.375Z,0.53
2018-01-24T07:25:55.284Z,0.90
2018-01-24T07:28:32.517Z,1.00
2018-01-24T07:31:04.457Z,1.00
2018-01-24T07:33:43.288Z,0.83
2018-01-24T07:36:15.795Z,1.47
2018-01-24T07:38:50.246Z,0.80
2018-01-24T07:41:28.023Z,0.98
2018-01-24T07:44:01.360Z,0.60
2018-01-24T07:46:35.635Z,0.87
2018-01-24T07:49:12.556Z,1.17
2018-01-24T07:54:28.595Z,1.20
2018-01-24T07:57:01.583Z,0.90
2018-01-24T07:59:37.556Z,0.70
2018-01-24T08:02:09.291Z,0.70
2018-01-24T08:04:44.441Z,0.70
2018-01-24T08:07:16.250Z,0.90
2018-01-24T08:09:49.500Z,0.67
2018-01-24T08:12:23.518Z,0.80
2018-01-24T08:14:58.528Z,0.70
2018-01-24T08:17:33.688Z,0.57
2018-01-24T08:20:08.421Z,0.70
2018-01-24T08:22:42.872Z,0.60
2018-01-24T08:25:15.468Z,0.80
2018-01-24T08:27:48.673Z,0.70
2018-01-24T08:30:21.417Z,0.67
2018-01-24T08:32:54.482Z,0.80
2018-01-24T08:35:27.633Z,0.87
2018-01-24T08:38:00.107Z,1.10
2018-01-24T08:40:36.471Z,1.10
2018-01-24T08:43:24.726Z,1.10
2018-01-24T08:46:00.493Z,0.70
2018-01-24T08:48:33.078Z,1.00
2018-01-24T08:51:06.976Z,1.10
2018-01-24T08:53:43.606Z,1.00
2018-01-24T08:56:23.351Z,0.80
2018-01-24T08:58:58.375Z,0.83
2018-01-24T09:01:45.703Z,1.00
2018-01-24T09:04:21.689Z,0.83
2018-01-24T09:06:54.690Z,1.00
2018-01-24T09:09:30.622Z,1.03
2018-01-24T09:12:16.174Z,1.10
2018-01-24T09:14:49.200Z,0.60
2018-01-24T09:17:31.305Z,0.90
2018-01-24T09:20:06.804Z,0.60
2018-01-24T09:22:42.596Z,0.80
2018-01-24T09:25:18.073Z,0.70
2018-01-24T09:27:52.197Z,0.50
2018-01-24T09:30:26.108Z,0.80
2018-01-24T09:32:58.989Z,0.80
2018-01-24T09:35:33.964Z,0.87
2018-01-24T09:38:09.620Z,2.17
2018-01-24T09:40:52.233Z,1.03
2018-01-24T09:44:04.021Z,0.90
2018-01-24T09:46:38.495Z,1.20
2018-01-24T09:49:12.488Z,1.23
2018-01-24T09:51:46.367Z,1.40
2018-01-24T09:54:27.013Z,1.57
2018-01-24T09:57:06.898Z,1.30
2018-01-24T09:59:53.033Z,1.07
2018-01-24T10:02:34.045Z,0.93
2018-01-24T10:05:10.228Z,0.90
2018-01-24T10:07:49.526Z,1.00
2018-01-24T10:10:35.228Z,0.70
2018-01-24T10:13:14.048Z,0.67
2018-01-24T10:15:45.800Z,0.70
2018-01-24T10:18:27.019Z,0.67
2018-01-24T10:21:10.768Z,0.90
2018-01-24T10:23:45.404Z,0.50
2018-01-24T10:26:30.272Z,0.80
2018-01-24T10:29:02.737Z,0.60
2018-01-24T10:31:37.111Z,0.70
2018-01-24T10:34:09.004Z,0.60
2018-01-24T10:36:43.121Z,0.60
2018-01-24T10:39:21.212Z,0.47
2018-01-24T10:41:56.105Z,0.90
2018-01-24T10:44:33.025Z,0.80
2018-01-24T10:47:06.029Z,1.00
2018-01-24T10:49:39.275Z,0.80
2018-01-24T10:52:12.590Z,0.87
2018-01-24T10:54:51.672Z,1.00
2018-01-24T10:57:28.864Z,1.00
2018-01-24T11:00:06.906Z,0.70
2018-01-24T11:02:46.320Z,0.93
2018-01-24T11:05:19.726Z,0.90
2018-01-24T11:07:52.499Z,0.70
2018-01-24T11:10:28.805Z,0.80
2018-01-24T11:13:03.846Z,0.60
2018-01-24T11:15:41.641Z,0.80
2018-01-24T11:18:15.740Z,2.00
2018-01-24T11:20:51.320Z,0.90
2018-01-24T11:23:27.113Z,0.70
2018-01-24T11:26:02.204Z,0.83
2018-01-24T11:28:37.573Z,0.70
2018-01-24T11:31:16.103Z,0.93
2018-01-24T11:33:50.930Z,1.00
2018-01-24T11:36:23.572Z,0.70
2018-01-24T11:38:56.923Z,0.70
2018-01-24T11:41:38.411Z,1.10
2018-01-24T11:44:13.491Z,1.40
2018-01-24T11:46:47.980Z,0.50
2018-01-24T11:49:27.482Z,0.50
2018-01-24T11:55:01.205Z,1.03
2018-01-24T11:57:37.439Z,1.00
2018-01-24T12:00:12.504Z,1.97
2018-01-24T12:02:47.584Z,1.10
2018-01-24T12:05:25.546Z,1.40
2018-01-24T12:07:58.081Z,1.40
2018-01-24T12:10:31.068Z,1.10
2018-01-24T12:13:10.264Z,1.03
2018-01-24T12:15:45.778Z,0.97
2018-01-24T12:18:19.477Z,0.90
2018-01-24T12:20:59.953Z,0.90
2018-01-24T12:23:38.838Z,0.90
2018-01-24T12:26:12.392Z,0.70
2018-01-24T12:28:48.682Z,0.60
2018-01-24T12:31:25.456Z,0.80
2018-01-24T12:34:00.456Z,0.70
2018-01-24T12:36:35.214Z,0.80
2018-01-24T12:39:18.396Z,1.77
2018-01-24T12:41:53.908Z,0.80
2018-01-24T12:44:28.896Z,0.80
2018-01-24T12:47:10.725Z,0.67
2018-01-24T12:49:48.670Z,0.60
2018-01-24T12:52:28.232Z,0.50
2018-01-24T12:55:11.974Z,0.67
2018-01-24T12:57:49.464Z,0.50
2018-01-24T13:00:23.688Z,0.60
2018-01-24T13:03:00.703Z,0.90
2018-01-24T13:05:47.372Z,0.80
2018-01-24T13:08:35.105Z,1.17
2018-01-24T13:11:12.535Z,1.10
2018-01-24T13:13:49.140Z,0.90
2018-01-24T13:16:21.397Z,1.00
2018-01-24T13:18:54.514Z,0.97
2018-01-24T13:21:32.644Z,0.90
2018-01-24T13:24:09.298Z,0.77
2018-01-24T13:26:42.645Z,0.80
2018-01-24T13:29:16.103Z,1.20
2018-01-24T13:31:53.726Z,0.80
2018-01-24T13:34:26.994Z,0.90
2018-01-24T13:37:00.467Z,0.40
2018-01-24T13:39:36.196Z,0.50
2018-01-24T13:42:13.303Z,0.50
2018-01-24T13:44:48.701Z,0.70
2018-01-24T13:47:24.792Z,0.60
2018-01-24T13:49:58.193Z,0.53
2018-01-24T13:52:31.950Z,0.60
2018-01-24T13:55:09.740Z,0.60
2018-01-24T13:57:44.122Z,0.60
2018-01-24T14:00:22.995Z,0.50
2018-01-24T14:03:01.506Z,0.70
2018-01-24T14:05:38.791Z,0.67
2018-01-24T14:08:14.863Z,0.70
2018-01-24T14:10:51.255Z,0.63
2018-01-24T14:13:24.859Z,0.53
2018-01-24T14:15:58.112Z,0.60
2018-01-24T14:18:32.394Z,0.90
2018-01-24T14:21:16.198Z,0.77
2018-01-24T14:23:53.716Z,0.77
2018-01-24T14:26:32.450Z,0.60
2018-01-24T14:29:07.325Z,0.63
2018-01-24T14:31:41.551Z,0.40
2018-01-24T14:34:15.501Z,0.60
2018-01-24T14:39:37.775Z,0.50
2018-01-24T14:42:12.670Z,0.50
2018-01-24T14:44:49.232Z,0.50
2018-01-24T14:47:20.840Z,0.60
2018-01-24T14:50:03.526Z,0.50
2018-01-24T14:52:35.165Z,0.60
2018-01-24T14:55:09.723Z,0.57
2018-01-24T14:57:42.754Z,0.80
2018-01-24T15:00:17.724Z,0.73
2018-01-24T15:02:53.354Z,0.53
2018-01-24T15:05:25.839Z,0.50
2018-01-24T15:07:59.417Z,0.70
2018-01-24T15:10:31.858Z,0.60
2018-01-24T15:13:05.817Z,0.43
2018-01-24T15:15:39.312Z,0.60
2018-01-24T15:18:15.867Z,0.70
2018-01-24T15:20:51.347Z,0.60
2018-01-24T15:23:36.221Z,0.90
2018-01-24T15:26:08.881Z,0.50
2018-01-24T15:28:42.901Z,0.50
2018-01-24T15:31:17.420Z,0.60
2018-01-24T15:33:52.246Z,0.53
2018-01-24T15:36:24.483Z,0.77
2018-01-24T15:38:59.834Z,0.60
2018-01-24T15:41:37.411Z,0.80
2018-01-24T15:44:15.507Z,0.63
2018-01-24T15:46:51.077Z,0.60
2018-01-24T15:49:27.373Z,0.83
2018-01-24T15:52:03.499Z,0.50
2018-01-24T15:54:42.273Z,0.50
2018-01-24T15:57:17.040Z,0.70
2018-01-24T15:59:58.149Z,0.70
2018-01-24T16:02:39.132Z,0.57
2018-01-24T16:05:23.078Z,0.80
2018-01-24T16:07:59.116Z,0.53
2018-01-24T16:10:38.282Z,0.70
2018-01-24T16:13:16.671Z,0.97
2018-01-24T16:15:50.111Z,0.70
2018-01-24T16:18:23.808Z,0.70
2018-01-24T16:20:57.887Z,0.60
2018-01-24T16:23:34.560Z,0.70
2018-01-24T16:26:08.112Z,0.90
2018-01-24T16:28:42.916Z,0.80
2018-01-24T16:31:18.229Z,1.10
2018-01-24T16:33:53.414Z,0.90
2018-01-24T16:36:28.157Z,1.40
2018-01-24T16:39:04.083Z,0.90
2018-01-24T16:41:38.800Z,1.73
2018-01-24T16:44:11.936Z,0.80
2018-01-24T16:46:46.812Z,1.30
2018-01-24T16:49:20.122Z,1.57
2018-01-24T16:51:54.473Z,1.07
2018-01-24T16:54:32.499Z,1.33
2018-01-24T16:57:05.810Z,1.00
2018-01-24T16:59:38.991Z,1.07
2018-01-24T17:02:14.819Z,1.07
2018-01-24T17:04:48.113Z,0.80
2018-01-24T17:07:22.372Z,0.90
2018-01-24T17:09:58.488Z,1.00
2018-01-24T17:12:31.284Z,0.97
2018-01-24T17:15:04.824Z,1.20
2018-01-24T17:17:37.055Z,0.80
2018-01-24T17:20:10.934Z,1.30
2018-01-24T17:22:43.467Z,0.90
2018-01-24T17:25:17.857Z,1.17
2018-01-24T17:27:51.634Z,0.97
2018-01-24T17:30:24.608Z,1.00
2018-01-24T17:33:06.232Z,0.73
2018-01-24T17:35:42.933Z,0.80
2018-01-24T17:38:16.330Z,1.00
2018-01-24T17:40:48.218Z,0.90
2018-01-24T17:43:20.397Z,0.90
2018-01-24T17:45:53.252Z,0.93
2018-01-24T17:48:25.229Z,1.00
2018-01-24T17:50:58.310Z,1.10
2018-01-24T17:53:30.285Z,0.90
2018-01-24T17:56:02.771Z,1.20
2018-01-24T17:58:36.074Z,0.90
2018-01-24T18:01:08.105Z,2.13
2018-01-24T18:03:44.247Z,1.60
2018-01-24T18:06:23.555Z,1.97
2018-01-24T18:08:56.364Z,1.23
2018-01-24T18:11:32.734Z,1.40
2018-01-24T18:14:09.647Z,1.40
2018-01-24T18:16:44.063Z,0.97
2018-01-24T18:19:17.644Z,1.10
2018-01-24T18:21:54.818Z,1.20
2018-01-24T18:27:09.045Z,1.40
2018-01-24T18:29:47.332Z,1.10
2018-01-24T18:32:19.648Z,1.40
2018-01-24T18:34:53.795Z,1.30
2018-01-24T18:37:28.022Z,1.07
2018-01-24T18:40:01.073Z,1.20
2018-01-24T18:42:35.699Z,1.30
2018-01-24T18:45:14.101Z,1.23
2018-01-24T18:47:46.983Z,1.60
2018-01-24T18:50:22.904Z,1.47
2018-01-24T18:52:55.382Z,1.20
2018-01-24T18:55:28.038Z,1.60
2018-01-24T18:58:00.719Z,1.70
2018-01-24T19:00:32.223Z,1.63
2018-01-24T19:03:06.812Z,1.93
2018-01-24T19:05:52.453Z,1.40
2018-01-24T19:08:29.918Z,2.00
2018-01-24T19:11:04.003Z,1.13
2018-01-24T19:13:38.900Z,1.30
2018-01-24T19:16:14.612Z,1.50
2018-01-24T19:18:51.095Z,1.20
2018-01-24T19:21:26.168Z,1.20
2018-01-24T19:24:01.638Z,1.33
2018-01-24T19:26:36.274Z,1.50
2018-01-24T19:29:16.165Z,1.30
2018-01-24T19:31:51.766Z,1.43
2018-01-24T19:34:27.419Z,1.30
2018-01-24T19:37:04.229Z,1.33
2018-01-24T19:39:40.617Z,1.60
2018-01-24T19:42:18.806Z,1.40
2018-01-24T19:44:57.745Z,1.60
2018-01-24T19:47:30.998Z,1.17
2018-01-24T19:50:05.936Z,1.47
2018-01-24T19:52:41.226Z,1.67
2018-01-24T19:55:16.379Z,1.50
2018-01-24T19:57:53.805Z,1.67
2018-01-24T20:03:14.692Z,1.80
2018-01-24T20:05:48.910Z,1.63
2018-01-24T20:08:21.165Z,1.67
2018-01-24T20:10:59.783Z,1.87
2018-01-24T20:13:33.376Z,1.80
2018-01-24T20:16:06.007Z,1.77
2018-01-24T20:18:39.145Z,1.60
2018-01-24T20:21:11.403Z,1.80
2018-01-24T20:23:43.939Z,1.90
2018-01-24T20:26:17.733Z,1.80
2018-01-24T20:28:50.673Z,1.53
2018-01-24T20:31:22.692Z,1.50
2018-01-24T20:33:54.634Z,1.50
2018-01-24T20:36:27.106Z,1.60
2018-01-24T20:38:59.140Z,1.57
2018-01-24T20:41:31.490Z,1.40
2018-01-24T20:44:05.098Z,1.53
2018-01-24T20:46:37.524Z,1.50
2018-01-24T20:49:11.000Z,1.43
2018-01-24T20:51:44.319Z,1.63
2018-01-24T20:54:17.629Z,1.60
2018-01-24T20:56:50.667Z,1.90
2018-01-24T20:59:22.796Z,1.60
2018-01-24T21:01:59.714Z,1.50
2018-01-24T21:04:34.361Z,1.50
2018-01-24T21:07:08.464Z,1.60
2018-01-24T21:09:40.721Z,1.47
2018-01-24T21:12:14.770Z,1.43
2018-01-24T21:14:51.895Z,1.60
2018-01-24T21:17:24.190Z,1.77
2018-01-24T21:19:57.537Z,1.40
2018-01-24T21:22:33.089Z,1.60
2018-01-24T21:25:08.537Z,1.40
2018-01-24T21:27:43.024Z,1.40
2018-01-24T21:30:39.129Z,1.70
2018-01-24T21:33:21.963Z,1.47
2018-01-24T21:36:02.787Z,1.40
2018-01-24T21:38:36.171Z,1.50
2018-01-24T21:41:09.643Z,1.40
2018-01-24T21:43:45.522Z,1.73
2018-01-24T21:46:19.856Z,1.30
2018-01-24T21:48:51.572Z,1.50
2018-01-24T21:51:23.080Z,1.30
2018-01-24T21:53:57.090Z,1.60
2018-01-24T21:56:28.426Z,1.53
2018-01-24T21:59:02.579Z,1.20
2018-01-24T22:01:33.931Z,1.50
2018-01-24T22:04:05.972Z,1.37
2018-01-24T22:06:37.854Z,1.23
2018-01-24T22:09:10.742Z,1.50
2018-01-24T22:11:44.489Z,1.50
2018-01-24T22:14:18.257Z,1.30
2018-01-24T22:16:50.287Z,1.50
2018-01-24T22:19:25.195Z,1.43
2018-01-24T22:21:59.935Z,1.50
2018-01-24T22:24:32.014Z,1.50
2018-01-24T22:27:03.645Z,1.70
2018-01-24T22:29:36.380Z,1.30
2018-01-24T22:32:08.750Z,1.53
2018-01-24T22:34:43.546Z,1.57
2018-01-24T22:37:15.492Z,1.50
2018-01-24T22:39:49.068Z,1.53
2018-01-24T22:42:21.249Z,1.40
2018-01-24T22:44:55.630Z,1.60
2018-01-24T22:47:28.576Z,1.80
2018-01-24T22:50:00.351Z,1.50
2018-01-24T22:52:33.455Z,1.70
2018-01-24T22:55:05.182Z,1.40
2018-01-24T22:57:38.027Z,1.37
2018-01-24T23:00:23.639Z,1.40
2018-01-24T23:03:00.282Z,1.23
2018-01-24T23:05:36.421Z,1.50
2018-01-24T23:08:09.479Z,1.60
2018-01-24T23:10:41.354Z,1.63
2018-01-24T23:13:14.277Z,1.57
2018-01-24T23:15:47.367Z,1.47
2018-01-24T23:18:21.602Z,1.77
2018-01-24T23:20:55.418Z,1.80
2018-01-24T23:23:29.221Z,1.37
2018-01-24T23:26:06.335Z,1.70
2018-01-24T23:28:38.405Z,1.60
2018-01-24T23:31:11.768Z,1.60
2018-01-24T23:33:45.427Z,1.80
2018-01-24T23:36:17.830Z,1.70
2018-01-24T23:38:50.885Z,1.60
2018-01-24T23:41:22.770Z,1.70
2018-01-24T23:43:57.372Z,1.50
2018-01-24T23:46:31.011Z,1.80
2018-01-24T23:49:03.148Z,1.37
2018-01-24T23:51:37.047Z,1.73
2018-01-24T23:54:10.811Z,1.43
2018-01-24T23:56:43.992Z,1.50
2018-01-24T23:59:17.466Z,1.70
